Time;durP1;ratioP1;P1;durP2;ratioP2;P2;SDS_P1;SDS_P2;PMS_P1;PMS_P2;Temp;Humidity;BMP_temperature;BMP_pressure;BME280_temperature;BME280_humidity;BME280_pressure;Samples;Min_cycle;Max_cycle;Signal;HPM_P1;HPM_P2
2022/08/17 00:00:59;;;;;;;;;;;;;;;;;;5113959;28;1901;-71
2022/08/17 00:03:24;;;;;;;;;;;;;;;;;;5095060;28;1285;-71
2022/08/17 00:05:51;;;;;;;;;;;;;;;;;;5113601;28;1085;-70
2022/08/17 00:08:20;;;;;;;;;;;;;;;;;;5095041;28;1441;-71
2022/08/17 00:10:45;;;;;;;;;;;;;;;;;;5094818;28;1294;-71
2022/08/17 00:13:13;;;;;;;;;;;;;;;;;;5113080;28;991;-70
2022/08/17 00:15:38;;;;;;;;;;;;;;;;;;5094992;28;1223;-71
2022/08/17 00:18:04;;;;;;;;;;;;;;;;;;5113198;28;828;-69
2022/08/17 00:20:29;;;;;;;;;;;;;;;;;;5112437;28;1917;-69
2022/08/17 00:23:04;;;;;;;;;;;;;;;;;;5095147;28;967;-69
2022/08/17 00:25:30;;;;;;;;;;;;;;;;;;5112804;28;836;-69
2022/08/17 00:27:55;;;;;;;;;;;;;;;;;;5077647;28;1372;-69
2022/08/17 00:30:20;;;;;;;;;;;;;;;;;;5076926;28;1316;-69
2022/08/17 00:32:46;;;;;;;;;;;;;;;;;;5094100;28;1093;-69
2022/08/17 00:35:14;;;;;;;;;;;;;;;;;;5113701;28;932;-69
2022/08/17 00:37:39;;;;;;;;;;;;;;;;;;5094922;28;1252;-69
2022/08/17 00:40:06;;;;;;;;;;;;;;;;;;5078999;28;1980;-69
2022/08/17 00:42:32;;;;;;;;;;;;;;;;;;5070826;28;1210;-69
2022/08/17 00:44:57;;;;;;;;;;;;;;;;;;5073396;28;828;-72
2022/08/17 00:47:22;;;;;;;;;;;;;;;;;;5054227;28;1248;-70
2022/08/17 00:49:48;;;;;;;;;;;;;;;;;;5071066;28;1198;-70
2022/08/17 00:52:15;;;;;;;;;;;;;;;;;;5071804;28;946;-70
2022/08/17 00:54:42;;;;;;;;;;;;;;;;;;5072212;28;943;-70
2022/08/17 00:57:13;;;;;;;;;;;;;;;;;;5070814;28;1355;-70
2022/08/17 00:59:42;;;;;;;;;;;;;;;;;;5070787;28;1913;-70
2022/08/17 01:02:11;;;;;;;;;;;;;;;;;;5071883;28;876;-70
2022/08/17 01:04:37;;;;;;;;;;;;;;;;;;5070160;28;1369;-70
2022/08/17 01:07:03;;;;;;;;;;;;;;;;;;5071285;28;863;-70
2022/08/17 01:09:29;;;;;;;;;;;;;;;;;;5069993;28;1322;-70
2022/08/17 01:11:55;;;;;;;;;;;;;;;;;;5070295;28;1291;-70
2022/08/17 01:14:21;;;;;;;;;;;;;;;;;;5071331;28;841;-70
2022/08/17 01:16:48;;;;;;;;;;;;;;;;;;5071602;28;800;-70
2022/08/17 01:19:16;;;;;;;;;;;;;;;;;;5071274;28;1893;-70
2022/08/17 01:21:50;;;;;;;;;;;;;;;;;;5070138;28;1298;-71
2022/08/17 01:24:15;;;;;;;;;;;;;;;;;;5069082;28;1260;-70
2022/08/17 01:26:41;;;;;;;;;;;;;;;;;;5069680;28;1219;-70
2022/08/17 01:29:06;;;;;;;;;;;;;;;;;;5068855;28;1290;-70
2022/08/17 01:31:34;;;;;;;;;;;;;;;;;;5068736;28;1173;-70
2022/08/17 01:34:01;;;;;;;;;;;;;;;;;;5071784;28;853;-70
2022/08/17 01:36:27;;;;;;;;;;;;;;;;;;5069897;28;1155;-70
2022/08/17 01:38:52;;;;;;;;;;;;;;;;;;5071305;28;925;-70
2022/08/17 01:41:20;;;;;;;;;;;;;;;;;;5069817;28;1906;-70
2022/08/17 01:43:54;;;;;;;;;;;;;;;;;;5071023;28;970;-70
2022/08/17 01:46:23;;;;;;;;;;;;;;;;;;5071261;28;892;-70
2022/08/17 01:48:49;;;;;;;;;;;;;;;;;;5069802;28;1223;-70
2022/08/17 01:51:15;;;;;;;;;;;;;;;;;;5069700;28;1211;-70
2022/08/17 01:53:43;;;;;;;;;;;;;;;;;;5069668;28;1148;-70
2022/08/17 01:56:10;;;;;;;;;;;;;;;;;;5071243;28;809;-70
2022/08/17 01:58:36;;;;;;;;;;;;;;;;;;5070896;28;825;-70
2022/08/17 02:01:02;;;;;;;;;;;;;;;;;;5071484;28;1898;-69
2022/08/17 02:03:28;;;;;;;;;;;;;;;;;;5070947;28;820;-69
2022/08/17 02:05:54;;;;;;;;;;;;;;;;;;5069804;28;1218;-69
2022/08/17 02:08:20;;;;;;;;;;;;;;;;;;5071410;28;967;-70
2022/08/17 02:10:46;;;;;;;;;;;;;;;;;;5069833;28;828;-70
2022/08/17 02:13:11;;;;;;;;;;;;;;;;;;5071228;28;856;-70
2022/08/17 02:15:37;;;;;;;;;;;;;;;;;;5069944;28;1054;-70
2022/08/17 02:18:04;;;;;;;;;;;;;;;;;;5074899;28;793;-70
2022/08/17 02:20:32;;;;;;;;;;;;;;;;;;5074355;28;1979;-70
2022/08/17 02:23:01;;;;;;;;;;;;;;;;;;5073501;28;1270;-70
2022/08/17 02:25:27;;;;;;;;;;;;;;;;;;5073363;28;930;-70
2022/08/17 02:27:53;;;;;;;;;;;;;;;;;;5074357;28;896;-70
2022/08/17 02:30:19;;;;;;;;;;;;;;;;;;5072844;28;1227;-70
2022/08/17 02:32:44;;;;;;;;;;;;;;;;;;5074325;28;904;-70
2022/08/17 02:35:09;;;;;;;;;;;;;;;;;;5073062;28;1337;-70
2022/08/17 02:37:35;;;;;;;;;;;;;;;;;;5056074;28;1322;-70
2022/08/17 02:40:01;;;;;;;;;;;;;;;;;;5072833;28;1902;-70
2022/08/17 02:42:32;;;;;;;;;;;;;;;;;;5072952;28;1270;-70
2022/08/17 02:44:57;;;;;;;;;;;;;;;;;;5074552;28;852;-70
2022/08/17 02:47:23;;;;;;;;;;;;;;;;;;5074119;28;757;-70
2022/08/17 02:49:48;;;;;;;;;;;;;;;;;;5072924;28;1202;-70
2022/08/17 02:52:13;;;;;;;;;;;;;;;;;;5072370;28;1257;-70
2022/08/17 02:54:39;;;;;;;;;;;;;;;;;;5074351;28;900;-70
2022/08/17 02:57:04;;;;;;;;;;;;;;;;;;5072754;28;892;-69
2022/08/17 02:59:29;;;;;;;;;;;;;;;;;;5073804;28;1959;-70
2022/08/17 03:01:55;;;;;;;;;;;;;;;;;;5072764;28;1522;-70
2022/08/17 03:04:20;;;;;;;;;;;;;;;;;;5072545;28;1273;-69
2022/08/17 03:06:45;;;;;;;;;;;;;;;;;;5072674;28;816;-70
2022/08/17 03:09:10;;;;;;;;;;;;;;;;;;5072949;28;849;-70
2022/08/17 03:11:36;;;;;;;;;;;;;;;;;;5055810;28;1223;-70
2022/08/17 03:14:01;;;;;;;;;;;;;;;;;;5074244;28;880;-69
2022/08/17 03:16:26;;;;;;;;;;;;;;;;;;5072508;28;1499;-69
2022/08/17 03:18:53;;;;;;;;;;;;;;;;;;5072960;28;805;-69
2022/08/17 03:21:18;;;;;;;;;;;;;;;;;;5056107;28;1930;-69
2022/08/17 03:23:43;;;;;;;;;;;;;;;;;;5072782;28;1303;-69
2022/08/17 03:26:09;;;;;;;;;;;;;;;;;;5074048;28;896;-69
2022/08/17 03:28:35;;;;;;;;;;;;;;;;;;5073140;28;844;-69
2022/08/17 03:31:01;;;;;;;;;;;;;;;;;;5073591;28;845;-69
2022/08/17 03:33:27;;;;;;;;;;;;;;;;;;5072151;28;860;-69
2022/08/17 03:35:52;;;;;;;;;;;;;;;;;;5055171;28;1322;-69
2022/08/17 03:38:18;;;;;;;;;;;;;;;;;;5071688;28;1226;-69
2022/08/17 03:40:45;;;;;;;;;;;;;;;;;;5071734;28;1984;-69
2022/08/17 03:43:11;;;;;;;;;;;;;;;;;;5072622;28;1381;-69
2022/08/17 03:56:41;;;;;;;;;;;;;;;;;;5074360;28;651;-69
2022/08/17 03:59:07;;;;;;;;;;;;;;;;;;5072662;28;848;-70
2022/08/17 04:01:32;;;;;;;;;;;;;;;;;;5072138;28;1914;-69
2022/08/17 04:03:57;;;;;;;;;;;;;;;;;;5074430;28;825;-70
2022/08/17 04:06:23;;;;;;;;;;;;;;;;;;5073576;28;837;-70
2022/08/17 04:08:48;;;;;;;;;;;;;;;;;;5073026;28;1169;-70
2022/08/17 04:11:13;;;;;;;;;;;;;;;;;;5072428;28;1176;-70
2022/08/17 04:13:38;;;;;;;;;;;;;;;;;;5069037;28;1185;-70
2022/08/17 04:16:04;;;;;;;;;;;;;;;;;;5068496;28;1228;-70
2022/08/17 04:18:29;;;;;;;;;;;;;;;;;;5069826;28;1161;-70
2022/08/17 04:20:54;;;;;;;;;;;;;;;;;;5072492;28;1963;-70
2022/08/17 04:23:20;;;;;;;;;;;;;;;;;;5054449;28;1372;-70
2022/08/17 04:25:48;;;;;;;;;;;;;;;;;;5072296;28;982;-70
2022/08/17 04:28:15;;;;;;;;;;;;;;;;;;5071521;28;1429;-70
2022/08/17 04:30:40;;;;;;;;;;;;;;;;;;5073124;28;843;-70
2022/08/17 04:33:20;;;;;;;;;;;;;;;;;;5072213;28;868;-70
2022/08/17 04:35:47;;;;;;;;;;;;;;;;;;5072249;28;824;-71
2022/08/17 04:38:14;;;;;;;;;;;;;;;;;;5070549;28;1199;-70
2022/08/17 04:43:25;;;;;;;;;;;;;;;;;;5113016;28;722;-70
2022/08/17 04:45:51;;;;;;;;;;;;;;;;;;5112678;28;836;-70
2022/08/17 04:48:16;;;;;;;;;;;;;;;;;;5112086;28;1138;-71
2022/08/17 04:50:46;;;;;;;;;;;;;;;;;;5112827;28;745;-71
2022/08/17 04:53:12;;;;;;;;;;;;;;;;;;5112712;28;757;-70
2022/08/17 04:55:38;;;;;;;;;;;;;;;;;;5094314;28;1283;-71
2022/08/17 04:58:04;;;;;;;;;;;;;;;;;;5112665;28;852;-70
2022/08/17 05:00:29;;;;;;;;;;;;;;;;;;5077351;28;1910;-71
2022/08/17 05:02:55;;;;;;;;;;;;;;;;;;5112514;28;927;-69
2022/08/17 05:05:25;;;;;;;;;;;;;;;;;;5112407;28;883;-69
2022/08/17 05:07:51;;;;;;;;;;;;;;;;;;5112449;28;809;-69
2022/08/17 05:10:16;;;;;;;;;;;;;;;;;;5112345;28;798;-69
2022/08/17 05:12:42;;;;;;;;;;;;;;;;;;5112350;28;836;-69
2022/08/17 05:15:13;;;;;;;;;;;;;;;;;;5113235;28;1133;-69
2022/08/17 05:17:38;;;;;;;;;;;;;;;;;;5095066;28;1021;-69
2022/08/17 05:20:03;;;;;;;;;;;;;;;;;;5094104;28;1905;-69
2022/08/17 05:22:30;;;;;;;;;;;;;;;;;;5112159;28;864;-69
2022/08/17 05:24:55;;;;;;;;;;;;;;;;;;5094491;28;912;-69
2022/08/17 05:27:21;;;;;;;;;;;;;;;;;;5112192;28;947;-69
2022/08/17 05:29:46;;;;;;;;;;;;;;;;;;5112301;28;836;-69
2022/08/17 05:32:12;;;;;;;;;;;;;;;;;;5112965;28;864;-69
2022/08/17 05:34:38;;;;;;;;;;;;;;;;;;5093954;28;1230;-69
2022/08/17 05:37:03;;;;;;;;;;;;;;;;;;5112160;28;923;-70
2022/08/17 05:39:28;;;;;;;;;;;;;;;;;;5092862;28;1913;-69
2022/08/17 05:41:53;;;;;;;;;;;;;;;;;;5092894;28;832;-69
2022/08/17 05:44:19;;;;;;;;;;;;;;;;;;5111391;28;1003;-69
2022/08/17 05:46:47;;;;;;;;;;;;;;;;;;5076514;28;1167;-69
2022/08/17 05:49:14;;;;;;;;;;;;;;;;;;5111781;28;1459;-69
2022/08/17 05:51:43;;;;;;;;;;;;;;;;;;5111504;28;975;-70
2022/08/17 05:54:23;;;;;;;;;;;;;;;;;;5093430;28;1204;-70
2022/08/17 05:56:57;;;;;;;;;;;;;;;;;;5093465;28;1258;-70
2022/08/17 05:59:41;;;;;;;;;;;;;;;;;;5093183;28;1951;-69
2022/08/17 06:02:31;;;;;;;;;;;;;;;;;;5093466;28;1271;-70
2022/08/17 06:05:12;;;;;;;;;;;;;;;;;;5109966;28;1338;-70
2022/08/17 06:07:44;;;;;;;;;;;;;;;;;;5091513;28;1238;-70
2022/08/17 06:10:09;;;;;;;;;;;;;;;;;;5111424;28;832;-70
2022/08/17 06:12:47;;;;;;;;;;;;;;;;;;5093109;28;1309;-70
2022/08/17 06:15:29;;;;;;;;;;;;;;;;;;5093271;28;1265;-69
2022/08/17 06:17:58;;;;;;;;;;;;;;;;;;5111448;28;1061;-69
2022/08/17 06:20:26;;;;;;;;;;;;;;;;;;5111378;28;1957;-70
2022/08/17 06:22:55;;;;;;;;;;;;;;;;;;5111015;28;899;-70
2022/08/17 06:25:28;;;;;;;;;;;;;;;;;;5111231;28;911;-70
2022/08/17 06:28:15;;;;;;;;;;;;;;;;;;5093078;28;1215;-70
2022/08/17 06:30:45;;;;;;;;;;;;;;;;;;5112126;28;836;-70
2022/08/17 06:33:15;;;;;;;;;;;;;;;;;;5093254;28;1257;-73
2022/08/17 06:35:48;;;;;;;;;;;;;;;;;;5111972;28;855;-71
2022/08/17 06:38:32;;;;;;;;;;;;;;;;;;5093609;28;1392;-71
2022/08/17 06:41:04;;;;;;;;;;;;;;;;;;5111412;28;1973;-71
2022/08/17 06:44:02;;;;;;;;;;;;;;;;;;5093696;28;1246;-71
2022/08/17 06:46:31;;;;;;;;;;;;;;;;;;5049464;28;1284;-71
2022/08/17 06:48:59;;;;;;;;;;;;;;;;;;5093585;28;1086;-71
2022/08/17 06:51:47;;;;;;;;;;;;;;;;;;5093695;28;1181;-71
2022/08/17 06:54:26;;;;;;;;;;;;;;;;;;5112006;28;951;-71
2022/08/17 06:56:56;;;;;;;;;;;;;;;;;;5112154;28;824;-71
2022/08/17 06:59:27;;;;;;;;;;;;;;;;;;5111263;28;887;-71
2022/08/17 07:01:54;;;;;;;;;;;;;;;;;;5109963;28;935;-71
2022/08/17 07:04:21;;;;;;;;;;;;;;;;;;5094868;28;1328;-71
2022/08/17 07:06:52;;;;;;;;;;;;;;;;;;5115187;28;888;-70
2022/08/17 07:09:17;;;;;;;;;;;;;;;;;;5115104;28;903;-70
2022/08/17 07:11:49;;;;;;;;;;;;;;;;;;5096739;28;1357;-70
2022/08/17 07:14:26;;;;;;;;;;;;;;;;;;5114883;28;863;-70
2022/08/17 07:16:53;;;;;;;;;;;;;;;;;;5096539;28;1103;-70
2022/08/17 07:19:21;;;;;;;;;;;;;;;;;;5114184;28;836;-70
2022/08/17 07:21:53;;;;;;;;;;;;;;;;;;5114626;28;1961;-70
2022/08/17 07:24:27;;;;;;;;;;;;;;;;;;5113829;28;840;-70
2022/08/17 07:27:22;;;;;;;;;;;;;;;;;;5113793;28;971;-70
2022/08/17 07:29:48;;;;;;;;;;;;;;;;;;5078198;28;1240;-70
2022/08/17 07:32:17;;;;;;;;;;;;;;;;;;5113971;28;836;-70
2022/08/17 07:35:01;;;;;;;;;;;;;;;;;;5095538;28;1345;-70
2022/08/17 07:37:26;;;;;;;;;;;;;;;;;;5113574;28;927;-70
2022/08/17 07:39:54;;;;;;;;;;;;;;;;;;5113922;28;1989;-70
2022/08/17 07:42:19;;;;;;;;;;;;;;;;;;5095948;28;1164;-70
2022/08/17 07:44:51;;;;;;;;;;;;;;;;;;5113789;28;892;-70
2022/08/17 07:50:00;;;;;;;;;;;;;;;;;;5113962;28;674;-70
2022/08/17 07:52:28;;;;;;;;;;;;;;;;;;5078428;28;1372;-70
2022/08/17 07:54:53;;;;;;;;;;;;;;;;;;5114154;28;855;-66
2022/08/17 07:57:19;;;;;;;;;;;;;;;;;;5094661;28;1210;-66
2022/08/17 07:59:57;;;;;;;;;;;;;;;;;;5094746;28;1901;-66
2022/08/17 08:02:22;;;;;;;;;;;;;;;;;;5094726;28;1308;-66
2022/08/17 08:04:57;;;;;;;;;;;;;;;;;;5113351;28;821;-66
2022/08/17 08:07:25;;;;;;;;;;;;;;;;;;5094620;28;1310;-66
2022/08/17 08:10:09;;;;;;;;;;;;;;;;;;5094641;28;1418;-66
2022/08/17 08:12:37;;;;;;;;;;;;;;;;;;5112967;28;808;-67
2022/08/17 08:15:08;;;;;;;;;;;;;;;;;;5094467;28;1140;-66
2022/08/17 08:17:43;;;;;;;;;;;;;;;;;;5113106;28;890;-66
2022/08/17 08:20:09;;;;;;;;;;;;;;;;;;5094521;28;1972;-66
2022/08/17 08:23:02;;;;;;;;;;;;;;;;;;5112638;28;930;-66
2022/08/17 08:25:46;;;;;;;;;;;;;;;;;;5112620;28;832;-66
2022/08/17 08:28:12;;;;;;;;;;;;;;;;;;5112684;28;847;-66
2022/08/17 08:30:42;;;;;;;;;;;;;;;;;;5095021;28;1118;-66
2022/08/17 08:33:30;;;;;;;;;;;;;;;;;;5095318;28;1152;-66
2022/08/17 08:36:09;;;;;;;;;;;;;;;;;;5113293;28;945;-66
2022/08/17 08:38:43;;;;;;;;;;;;;;;;;;5113127;28;1541;-66
2022/08/17 08:41:11;;;;;;;;;;;;;;;;;;5112918;28;1971;-66
2022/08/17 08:43:42;;;;;;;;;;;;;;;;;;5094637;28;1447;-65
2022/08/17 08:46:13;;;;;;;;;;;;;;;;;;5095282;28;1119;-66
2022/08/17 08:48:54;;;;;;;;;;;;;;;;;;5095738;28;1198;-65
2022/08/17 08:51:38;;;;;;;;;;;;;;;;;;5113339;28;895;-66
2022/08/17 08:54:16;;;;;;;;;;;;;;;;;;5094561;28;1274;-65
2022/08/17 08:56:59;;;;;;;;;;;;;;;;;;5112498;28;1048;-66
2022/08/17 08:59:25;;;;;;;;;;;;;;;;;;5112669;28;891;-66
2022/08/17 09:02:10;;;;;;;;;;;;;;;;;;5112611;28;1897;-66
2022/08/17 09:04:53;;;;;;;;;;;;;;;;;;5112634;28;1062;-66
2022/08/17 09:07:37;;;;;;;;;;;;;;;;;;5112724;28;899;-66
2022/08/17 09:10:12;;;;;;;;;;;;;;;;;;5094669;28;1183;-66
2022/08/17 09:12:47;;;;;;;;;;;;;;;;;;5094219;28;1137;-67
2022/08/17 09:15:19;;;;;;;;;;;;;;;;;;5094341;28;1357;-66
2022/08/17 09:18:03;;;;;;;;;;;;;;;;;;5112761;28;903;-66
2022/08/17 09:20:41;;;;;;;;;;;;;;;;;;5093767;28;1951;-66
2022/08/17 09:23:18;;;;;;;;;;;;;;;;;;5094090;28;1401;-67
2022/08/17 09:26:05;;;;;;;;;;;;;;;;;;5091982;28;1338;-70
2022/08/17 09:28:35;;;;;;;;;;;;;;;;;;5093577;28;1309;-70
2022/08/17 09:31:10;;;;;;;;;;;;;;;;;;5094498;28;1171;-70
2022/08/17 09:33:38;;;;;;;;;;;;;;;;;;5112305;28;907;-70
2022/08/17 09:36:24;;;;;;;;;;;;;;;;;;5112051;28;765;-70
2022/08/17 09:39:00;;;;;;;;;;;;;;;;;;5112738;28;904;-70
2022/08/17 09:41:25;;;;;;;;;;;;;;;;;;5111351;28;1976;-70
2022/08/17 09:43:59;;;;;;;;;;;;;;;;;;5112432;28;769;-70
2022/08/17 09:46:31;;;;;;;;;;;;;;;;;;5093228;28;1332;-70
2022/08/17 09:49:02;;;;;;;;;;;;;;;;;;5112210;28;963;-70
2022/08/17 09:51:33;;;;;;;;;;;;;;;;;;5093456;28;1242;-70
2022/08/17 09:53:59;;;;;;;;;;;;;;;;;;5112441;28;931;-70
2022/08/17 09:56:36;;;;;;;;;;;;;;;;;;5093447;28;1313;-70
2022/08/17 09:59:02;;;;;;;;;;;;;;;;;;5112334;28;896;-70
2022/08/17 10:01:36;;;;;;;;;;;;;;;;;;5093763;28;1889;-70
2022/08/17 10:04:20;;;;;;;;;;;;;;;;;;5094378;28;1277;-70
2022/08/17 10:06:53;;;;;;;;;;;;;;;;;;5094239;28;1510;-71
2022/08/17 10:09:34;;;;;;;;;;;;;;;;;;5094083;28;1361;-70
2022/08/17 10:12:19;;;;;;;;;;;;;;;;;;5112800;28;828;-71
2022/08/17 10:14:53;;;;;;;;;;;;;;;;;;5111545;28;848;-70
2022/08/17 10:17:26;;;;;;;;;;;;;;;;;;5093497;28;1230;-72
2022/08/17 10:20:10;;;;;;;;;;;;;;;;;;5112039;28;1874;-71
2022/08/17 10:28:39;;;;;;;;;;;;;;;;;;5112042;28;685;-71
2022/08/17 10:31:08;;;;;;;;;;;;;;;;;;5093678;28;1198;-71
2022/08/17 10:33:56;;;;;;;;;;;;;;;;;;5092671;28;1345;-71
2022/08/17 10:36:26;;;;;;;;;;;;;;;;;;5110806;28;867;-67
2022/08/17 10:39:03;;;;;;;;;;;;;;;;;;5093946;28;1294;-67
2022/08/17 10:41:30;;;;;;;;;;;;;;;;;;5095867;28;1963;-67
2022/08/17 10:44:01;;;;;;;;;;;;;;;;;;5096479;28;1361;-67
2022/08/17 10:46:41;;;;;;;;;;;;;;;;;;5113983;28;887;-67
2022/08/17 10:49:15;;;;;;;;;;;;;;;;;;5096288;28;1245;-66
2022/08/17 10:51:41;;;;;;;;;;;;;;;;;;5114913;28;832;-66
2022/08/17 10:54:26;;;;;;;;;;;;;;;;;;5114773;28;832;-66
2022/08/17 10:56:55;;;;;;;;;;;;;;;;;;5096278;28;1244;-66
2022/08/17 10:59:40;;;;;;;;;;;;;;;;;;5096243;28;1326;-66
2022/08/17 11:02:13;;;;;;;;;;;;;;;;;;5113782;28;1024;-66
2022/08/17 11:04:48;;;;;;;;;;;;;;;;;;5114556;28;1073;-66
2022/08/17 11:07:31;;;;;;;;;;;;;;;;;;5114180;28;824;-66
2022/08/17 11:10:15;;;;;;;;;;;;;;;;;;5114825;28;950;-66
2022/08/17 11:13:13;;;;;;;;;;;;;;;;;;5114119;28;942;-66
2022/08/17 11:15:57;;;;;;;;;;;;;;;;;;5051463;28;1227;-67
2022/08/17 11:18:22;;;;;;;;;;;;;;;;;;5111987;28;1152;-66
2022/08/17 11:20:58;;;;;;;;;;;;;;;;;;5112407;28;1987;-66
2022/08/17 11:23:47;;;;;;;;;;;;;;;;;;5114107;28;836;-66
2022/08/17 11:26:24;;;;;;;;;;;;;;;;;;5096239;28;1216;-67
2022/08/17 11:28:55;;;;;;;;;;;;;;;;;;5096655;28;1202;-67
2022/08/17 11:31:28;;;;;;;;;;;;;;;;;;5114684;28;848;-67
2022/08/17 11:34:16;;;;;;;;;;;;;;;;;;5115004;28;746;-67
2022/08/17 11:36:47;;;;;;;;;;;;;;;;;;5095853;28;1365;-67
2022/08/17 11:39:26;;;;;;;;;;;;;;;;;;5114051;28;1201;-67
2022/08/17 11:41:54;;;;;;;;;;;;;;;;;;5114648;28;1968;-66
2022/08/17 11:44:38;;;;;;;;;;;;;;;;;;5095652;28;1328;-67
2022/08/17 11:52:39;;;;;;;;;;;;;;;;;;5114117;28;686;-66
2022/08/17 11:55:07;;;;;;;;;;;;;;;;;;5095457;28;1285;-66
2022/08/17 11:57:39;;;;;;;;;;;;;;;;;;5094799;28;1238;-70
2022/08/17 12:00:09;;;;;;;;;;;;;;;;;;5095523;28;1894;-70
2022/08/17 12:02:37;;;;;;;;;;;;;;;;;;5095217;28;1369;-70
2022/08/17 12:05:21;;;;;;;;;;;;;;;;;;5114001;28;828;-70
2022/08/17 12:08:07;;;;;;;;;;;;;;;;;;5113329;28;863;-70
2022/08/17 12:10:34;;;;;;;;;;;;;;;;;;5098526;28;1048;-70
2022/08/17 12:13:04;;;;;;;;;;;;;;;;;;5113850;28;923;-70
2022/08/17 12:15:31;;;;;;;;;;;;;;;;;;5113121;28;864;-70
2022/08/17 12:17:57;;;;;;;;;;;;;;;;;;5113281;28;902;-70
2022/08/17 12:20:27;;;;;;;;;;;;;;;;;;5113177;28;1894;-70
2022/08/17 12:23:10;;;;;;;;;;;;;;;;;;5113273;28;1250;-70
2022/08/17 12:25:40;;;;;;;;;;;;;;;;;;5112556;28;1002;-70
2022/08/17 12:28:17;;;;;;;;;;;;;;;;;;5113180;28;837;-70
2022/08/17 12:30:47;;;;;;;;;;;;;;;;;;5094698;28;1195;-70
2022/08/17 12:33:13;;;;;;;;;;;;;;;;;;5113298;28;836;-70
2022/08/17 12:35:38;;;;;;;;;;;;;;;;;;5077286;28;1212;-70
2022/08/17 12:38:06;;;;;;;;;;;;;;;;;;5112916;28;836;-71
2022/08/17 12:40:31;;;;;;;;;;;;;;;;;;5112541;28;1909;-70
2022/08/17 12:43:05;;;;;;;;;;;;;;;;;;5112995;28;896;-71
2022/08/17 12:45:32;;;;;;;;;;;;;;;;;;5112449;28;836;-70
2022/08/17 12:48:06;;;;;;;;;;;;;;;;;;5113110;28;860;-70
2022/08/17 12:50:31;;;;;;;;;;;;;;;;;;5112572;28;1004;-70
2022/08/17 12:52:57;;;;;;;;;;;;;;;;;;5113076;28;862;-70
2022/08/17 12:55:24;;;;;;;;;;;;;;;;;;5112801;28;995;-70
2022/08/17 12:57:52;;;;;;;;;;;;;;;;;;5112569;28;879;-70
2022/08/17 13:00:27;;;;;;;;;;;;;;;;;;5094589;28;1953;-70
2022/08/17 13:02:55;;;;;;;;;;;;;;;;;;5094184;28;1289;-71
2022/08/17 13:05:21;;;;;;;;;;;;;;;;;;5113399;28;1030;-70
2022/08/17 13:07:46;;;;;;;;;;;;;;;;;;5113068;28;1057;-70
2022/08/17 13:10:20;;;;;;;;;;;;;;;;;;5095409;28;1249;-70
2022/08/17 13:12:48;;;;;;;;;;;;;;;;;;5094959;28;1226;-70
2022/08/17 13:15:22;;;;;;;;;;;;;;;;;;5113382;28;919;-70
2022/08/17 13:17:55;;;;;;;;;;;;;;;;;;5112896;28;911;-70
2022/08/17 13:20:20;;;;;;;;;;;;;;;;;;5113159;28;1901;-70
2022/08/17 13:22:51;;;;;;;;;;;;;;;;;;5112515;28;925;-70
2022/08/17 13:25:16;;;;;;;;;;;;;;;;;;5112427;28;954;-70
2022/08/17 13:27:42;;;;;;;;;;;;;;;;;;5077248;28;1239;-70
2022/08/17 13:30:10;;;;;;;;;;;;;;;;;;5095138;28;848;-70
2022/08/17 13:32:41;;;;;;;;;;;;;;;;;;5093985;28;1326;-70
2022/08/17 13:35:24;;;;;;;;;;;;;;;;;;5094391;28;1235;-70
2022/08/17 13:38:25;;;;;;;;;;;;;;;;;;5093877;28;1467;-70
2022/08/17 13:40:51;;;;;;;;;;;;;;;;;;5012248;28;1989;-70
2022/08/17 13:43:37;;;;;;;;;;;;;;;;;;5064679;28;1228;-70
2022/08/17 13:46:07;;;;;;;;;;;;;;;;;;5094244;28;1345;-70
2022/08/17 13:48:36;;;;;;;;;;;;;;;;;;5111253;28;902;-70
2022/08/17 13:51:03;;;;;;;;;;;;;;;;;;5093918;28;1241;-70
2022/08/17 13:53:31;;;;;;;;;;;;;;;;;;5111861;28;982;-70
2022/08/17 13:56:02;;;;;;;;;;;;;;;;;;5112087;28;785;-70
2022/08/17 13:58:29;;;;;;;;;;;;;;;;;;5093732;28;1401;-70
2022/08/17 14:00:55;;;;;;;;;;;;;;;;;;5112732;28;1906;-70
2022/08/17 14:03:21;;;;;;;;;;;;;;;;;;5094013;28;1294;-70
2022/08/17 14:05:48;;;;;;;;;;;;;;;;;;5093409;28;1361;-70
2022/08/17 14:08:15;;;;;;;;;;;;;;;;;;5112710;28;824;-70
2022/08/17 14:10:41;;;;;;;;;;;;;;;;;;5111950;28;856;-70
2022/08/17 14:13:06;;;;;;;;;;;;;;;;;;5095984;28;1291;-70
2022/08/17 14:15:32;;;;;;;;;;;;;;;;;;5098008;28;978;-70
2022/08/17 14:17:57;;;;;;;;;;;;;;;;;;5098823;28;1395;-71
2022/08/17 14:20:23;;;;;;;;;;;;;;;;;;5116700;28;1960;-71
2022/08/17 14:22:51;;;;;;;;;;;;;;;;;;5115992;28;884;-70
2022/08/17 14:25:26;;;;;;;;;;;;;;;;;;5097726;28;1342;-70
2022/08/17 14:27:52;;;;;;;;;;;;;;;;;;5115614;28;949;-71
2022/08/17 14:30:18;;;;;;;;;;;;;;;;;;5116326;28;840;-70
2022/08/17 14:32:47;;;;;;;;;;;;;;;;;;5116351;28;884;-70
2022/08/17 14:35:13;;;;;;;;;;;;;;;;;;5098168;28;1432;-70
2022/08/17 14:37:38;;;;;;;;;;;;;;;;;;5097941;28;1443;-70
2022/08/17 14:40:06;;;;;;;;;;;;;;;;;;5116127;28;1985;-70
2022/08/17 14:42:32;;;;;;;;;;;;;;;;;;5097169;28;1235;-70
2022/08/17 14:44:58;;;;;;;;;;;;;;;;;;5116165;28;1167;-70
2022/08/17 14:47:25;;;;;;;;;;;;;;;;;;5115612;28;1144;-70
2022/08/17 14:49:50;;;;;;;;;;;;;;;;;;5114920;28;1171;-70
2022/08/17 14:52:20;;;;;;;;;;;;;;;;;;5115970;28;847;-70
2022/08/17 14:54:47;;;;;;;;;;;;;;;;;;5096995;28;1375;-70
2022/08/17 14:57:13;;;;;;;;;;;;;;;;;;5098039;28;840;-70
2022/08/17 14:59:39;;;;;;;;;;;;;;;;;;5115096;28;836;-70
2022/08/17 15:02:04;;;;;;;;;;;;;;;;;;5096685;28;1898;-70
2022/08/17 15:04:30;;;;;;;;;;;;;;;;;;5079813;28;1346;-70
2022/08/17 15:06:56;;;;;;;;;;;;;;;;;;5115170;28;1153;-70
2022/08/17 15:09:21;;;;;;;;;;;;;;;;;;5095998;28;1285;-69
2022/08/17 15:11:47;;;;;;;;;;;;;;;;;;5095063;28;1218;-69
2022/08/17 15:14:12;;;;;;;;;;;;;;;;;;5113820;28;1140;-69
2022/08/17 15:16:38;;;;;;;;;;;;;;;;;;5078833;28;1234;-69
2022/08/17 15:19:04;;;;;;;;;;;;;;;;;;5095246;28;1148;-69
2022/08/17 15:21:30;;;;;;;;;;;;;;;;;;5114381;28;1951;-69
2022/08/17 15:23:55;;;;;;;;;;;;;;;;;;5113826;28;978;-69
2022/08/17 15:26:21;;;;;;;;;;;;;;;;;;5114625;28;920;-69
2022/08/17 15:28:46;;;;;;;;;;;;;;;;;;5096072;28;821;-69
2022/08/17 15:31:11;;;;;;;;;;;;;;;;;;5096655;28;1175;-69
2022/08/17 15:33:37;;;;;;;;;;;;;;;;;;5095842;28;935;-69
2022/08/17 15:36:05;;;;;;;;;;;;;;;;;;5096213;28;1368;-69
2022/08/17 15:38:32;;;;;;;;;;;;;;;;;;5114170;28;916;-69
2022/08/17 15:40:58;;;;;;;;;;;;;;;;;;5092707;28;1973;-69
2022/08/17 15:43:25;;;;;;;;;;;;;;;;;;5094198;28;998;-69
2022/08/17 15:46:01;;;;;;;;;;;;;;;;;;5093023;28;1139;-69
2022/08/17 15:48:40;;;;;;;;;;;;;;;;;;5094049;28;804;-69
2022/08/17 15:51:16;;;;;;;;;;;;;;;;;;5093148;28;1293;-69
2022/08/17 15:53:43;;;;;;;;;;;;;;;;;;5094109;28;844;-69
2022/08/17 15:56:08;;;;;;;;;;;;;;;;;;5093683;28;1218;-69
2022/08/17 15:58:35;;;;;;;;;;;;;;;;;;5094166;28;840;-69
2022/08/17 16:01:01;;;;;;;;;;;;;;;;;;5094374;28;1901;-69
2022/08/17 16:03:27;;;;;;;;;;;;;;;;;;5094509;28;820;-69
2022/08/17 16:05:52;;;;;;;;;;;;;;;;;;5092813;28;1198;-69
2022/08/17 16:08:18;;;;;;;;;;;;;;;;;;5094692;28;844;-69
2022/08/17 16:10:43;;;;;;;;;;;;;;;;;;5093883;28;868;-69
2022/08/17 16:13:09;;;;;;;;;;;;;;;;;;5094342;28;921;-69
2022/08/17 16:15:34;;;;;;;;;;;;;;;;;;5091730;28;1348;-69
2022/08/17 16:18:00;;;;;;;;;;;;;;;;;;5092450;28;899;-69
2022/08/17 16:20:26;;;;;;;;;;;;;;;;;;5094074;28;1922;-70
2022/08/17 16:22:51;;;;;;;;;;;;;;;;;;5093243;28;887;-66
2022/08/17 16:25:18;;;;;;;;;;;;;;;;;;5092968;28;951;-66
2022/08/17 16:27:44;;;;;;;;;;;;;;;;;;5092589;28;844;-65
2022/08/17 16:30:10;;;;;;;;;;;;;;;;;;5092984;28;820;-66
2022/08/17 16:32:36;;;;;;;;;;;;;;;;;;5091421;28;1194;-66
2022/08/17 16:35:03;;;;;;;;;;;;;;;;;;5074465;28;1288;-66
2022/08/17 16:37:29;;;;;;;;;;;;;;;;;;5092631;28;931;-66
2022/08/17 16:39:55;;;;;;;;;;;;;;;;;;5090698;28;1910;-66
2022/08/17 16:42:23;;;;;;;;;;;;;;;;;;5091525;28;896;-67
2022/08/17 16:44:48;;;;;;;;;;;;;;;;;;5090955;28;1199;-66
2022/08/17 16:47:16;;;;;;;;;;;;;;;;;;5091431;28;763;-66
2022/08/17 16:49:41;;;;;;;;;;;;;;;;;;5093001;28;852;-69
2022/08/17 16:52:10;;;;;;;;;;;;;;;;;;5075221;28;1290;-69
2022/08/17 16:54:37;;;;;;;;;;;;;;;;;;5091480;28;1285;-69
2022/08/17 16:57:03;;;;;;;;;;;;;;;;;;5092792;28;837;-69
2022/08/17 16:59:30;;;;;;;;;;;;;;;;;;5091697;28;1242;-69
2022/08/17 17:02:00;;;;;;;;;;;;;;;;;;5091130;28;1903;-68
2022/08/17 17:04:26;;;;;;;;;;;;;;;;;;5091363;28;1475;-69
2022/08/17 17:07:02;;;;;;;;;;;;;;;;;;5091136;28;1234;-69
2022/08/17 17:09:31;;;;;;;;;;;;;;;;;;5092911;28;773;-69
2022/08/17 17:11:59;;;;;;;;;;;;;;;;;;5090867;28;1305;-69
2022/08/17 17:14:39;;;;;;;;;;;;;;;;;;5092905;28;793;-69
2022/08/17 17:17:23;;;;;;;;;;;;;;;;;;5092478;28;1007;-69
2022/08/17 17:19:57;;;;;;;;;;;;;;;;;;5092310;28;1969;-69
2022/08/17 17:22:22;;;;;;;;;;;;;;;;;;5091165;28;1379;-70
2022/08/17 17:25:00;;;;;;;;;;;;;;;;;;5090405;28;1329;-69
2022/08/17 17:27:31;;;;;;;;;;;;;;;;;;5091342;28;1240;-69
2022/08/17 17:30:03;;;;;;;;;;;;;;;;;;5092023;28;824;-69
2022/08/17 17:32:39;;;;;;;;;;;;;;;;;;5092190;28;871;-69
2022/08/17 17:35:14;;;;;;;;;;;;;;;;;;5091892;28;946;-69
2022/08/17 17:37:41;;;;;;;;;;;;;;;;;;5090334;28;1349;-69
2022/08/17 17:40:20;;;;;;;;;;;;;;;;;;5099083;28;1918;-70
2022/08/17 17:42:47;;;;;;;;;;;;;;;;;;5112213;28;844;-69
2022/08/17 17:45:18;;;;;;;;;;;;;;;;;;5094759;28;1382;-70
2022/08/17 17:47:44;;;;;;;;;;;;;;;;;;5094065;28;1183;-71
2022/08/17 17:50:10;;;;;;;;;;;;;;;;;;5078481;28;1148;-69
2022/08/17 17:52:39;;;;;;;;;;;;;;;;;;5113204;28;1005;-69
2022/08/17 17:55:22;;;;;;;;;;;;;;;;;;5094598;28;1246;-69
2022/08/17 17:58:11;;;;;;;;;;;;;;;;;;5112501;28;832;-68